sensor_id;sensor_type;location;lat;lon;timestamp;pressure;altitude;pressure_sealevel;temperature;humidity
62634;BME280;48704;50.534;6.442;2024-01-25T00:01:33;96623.78;;;5.18;100.00
62634;BME280;48704;50.534;6.442;2024-01-25T00:03:58;96627.75;;;5.17;100.00
62634;BME280;48704;50.534;6.442;2024-01-25T00:06:23;96623.06;;;5.14;100.00
62634;BME280;48704;50.534;6.442;2024-01-25T00:08:50;96617.53;;;5.14;100.00
62634;BME280;48704;50.534;6.442;2024-01-25T00:11:15;96618.31;;;5.15;100.00
62634;BME280;48704;50.534;6.442;2024-01-25T00:13:41;96620.66;;;5.16;100.00
62634;BME280;48704;50.534;6.442;2024-01-25T00:16:06;96623.78;;;5.18;100.00
62634;BME280;48704;50.534;6.442;2024-01-25T00:18:31;96622.31;;;5.10;100.00
62634;BME280;48704;50.534;6.442;2024-01-25T00:20:56;96619.94;;;5.12;100.00
62634;BME280;48704;50.534;6.442;2024-01-25T00:23:22;96616.69;;;5.17;100.00
62634;BME280;48704;50.534;6.442;2024-01-25T00:25:47;96599.38;;;5.13;100.00
62634;BME280;48704;50.534;6.442;2024-01-25T00:28:12;96606.84;;;5.16;100.00
62634;BME280;48704;50.534;6.442;2024-01-25T00:30:38;96623.06;;;5.14;100.00
62634;BME280;48704;50.534;6.442;2024-01-25T00:33:04;96617.53;;;5.14;100.00
62634;BME280;48704;50.534;6.442;2024-01-25T00:35:29;96613.56;;;5.15;100.00
62634;BME280;48704;50.534;6.442;2024-01-25T00:37:55;96618.38;;;5.11;100.00
62634;BME280;48704;50.534;6.442;2024-01-25T00:40:21;96616.91;;;5.03;100.00
62634;BME280;48704;50.534;6.442;2024-01-25T00:42:46;96617.16;;;5.12;100.00
62634;BME280;48704;50.534;6.442;2024-01-25T00:45:19;96619.16;;;5.12;100.00
62634;BME280;48704;50.534;6.442;2024-01-25T00:47:45;96617.53;;;5.14;100.00
62634;BME280;48704;50.534;6.442;2024-01-25T00:50:11;96613.53;;;5.19;100.00
62634;BME280;48704;50.534;6.442;2024-01-25T00:52:37;96620.66;;;5.16;100.00
62634;BME280;48704;50.534;6.442;2024-01-25T00:55:02;96624.72;;;5.08;100.00
62634;BME280;48704;50.534;6.442;2024-01-25T00:57:28;96629.38;;;5.15;100.00
62634;BME280;48704;50.534;6.442;2024-01-25T00:59:54;96627.03;;;5.13;100.00
62634;BME280;48704;50.534;6.442;2024-01-25T01:02:21;96625.41;;;5.16;100.00
62634;BME280;48704;50.534;6.442;2024-01-25T01:04:47;96619.50;;;5.14;100.00
62634;BME280;48704;50.534;6.442;2024-01-25T01:07:12;96623.16;;;5.07;100.00
62634;BME280;48704;50.534;6.442;2024-01-25T01:09:38;96633.31;;;5.14;100.00
62634;BME280;48704;50.534;6.442;2024-01-25T01:12:03;96635.00;;;5.08;100.00
62634;BME280;48704;50.534;6.442;2024-01-25T01:14:28;96623.97;;;5.04;100.00
62634;BME280;48704;50.534;6.442;2024-01-25T01:16:54;96630.97;;;5.12;100.00
62634;BME280;48704;50.534;6.442;2024-01-25T01:19:20;96631.81;;;5.09;100.00
62634;BME280;48704;50.534;6.442;2024-01-25T01:21:45;96635.03;;;5.04;100.00
62634;BME280;48704;50.534;6.442;2024-01-25T01:24:11;96638.06;;;5.13;100.00
62634;BME280;48704;50.534;6.442;2024-01-25T01:26:37;96630.97;;;5.12;100.00
62634;BME280;48704;50.534;6.442;2024-01-25T01:29:02;96640.38;;;5.18;100.00
62634;BME280;48704;50.534;6.442;2024-01-25T01:31:27;96650.72;;;5.11;100.00
62634;BME280;48704;50.534;6.442;2024-01-25T01:33:53;96642.84;;;5.09;100.00
62634;BME280;48704;50.534;6.442;2024-01-25T01:36:18;96643.59;;;5.13;100.00
62634;BME280;48704;50.534;6.442;2024-01-25T01:38:44;96658.66;;;5.09;100.00
62634;BME280;48704;50.534;6.442;2024-01-25T01:41:10;96664.97;;;5.09;100.00
62634;BME280;48704;50.534;6.442;2024-01-25T01:43:37;96664.31;;;4.98;100.00
62634;BME280;48704;50.534;6.442;2024-01-25T01:46:14;96668.19;;;5.04;100.00
62634;BME280;48704;50.534;6.442;2024-01-25T01:48:45;96653.16;;;5.05;100.00
62634;BME280;48704;50.534;6.442;2024-01-25T01:51:11;96652.34;;;5.08;100.00
62634;BME280;48704;50.534;6.442;2024-01-25T01:53:36;96650.78;;;5.07;100.00
62634;BME280;48704;50.534;6.442;2024-01-25T01:56:02;96648.38;;;5.09;100.00
62634;BME280;48704;50.534;6.442;2024-01-25T01:58:29;96636.59;;;5.05;100.00
62634;BME280;48704;50.534;6.442;2024-01-25T02:00:55;96642.13;;;5.05;100.00
62634;BME280;48704;50.534;6.442;2024-01-25T02:03:21;96645.25;;;5.07;100.00
62634;BME280;48704;50.534;6.442;2024-01-25T02:05:47;96667.06;;;4.98;100.00
62634;BME280;48704;50.534;6.442;2024-01-25T02:08:12;96647.00;;;4.94;100.00
62634;BME280;48704;50.534;6.442;2024-01-25T02:10:38;96645.34;;;5.00;100.00
62634;BME280;48704;50.534;6.442;2024-01-25T02:13:03;96652.53;;;4.94;100.00
62634;BME280;48704;50.534;6.442;2024-01-25T02:15:28;96654.19;;;4.88;100.00
62634;BME280;48704;50.534;6.442;2024-01-25T02:17:54;96662.00;;;4.93;100.00
62634;BME280;48704;50.534;6.442;2024-01-25T02:20:20;96666.72;;;4.96;100.00
62634;BME280;48704;50.534;6.442;2024-01-25T02:22:46;96661.56;;;4.98;100.00
62634;BME280;48704;50.534;6.442;2024-01-25T02:25:11;96658.78;;;4.98;100.00
62634;BME280;48704;50.534;6.442;2024-01-25T02:27:36;96672.22;;;4.96;100.00
62634;BME280;48704;50.534;6.442;2024-01-25T02:30:05;96667.53;;;4.93;100.00
62634;BME280;48704;50.534;6.442;2024-01-25T02:32:31;96664.50;;;4.84;100.00
62634;BME280;48704;50.534;6.442;2024-01-25T02:34:56;96660.81;;;4.94;100.00
62634;BME280;48704;50.534;6.442;2024-01-25T02:37:22;96649.47;;;4.85;100.00
62634;BME280;48704;50.534;6.442;2024-01-25T02:39:47;96647.47;;;4.89;100.00
62634;BME280;48704;50.534;6.442;2024-01-25T02:42:12;96651.06;;;4.86;100.00
62634;BME280;48704;50.534;6.442;2024-01-25T02:44:39;96648.81;;;4.77;100.00
62634;BME280;48704;50.534;6.442;2024-01-25T02:47:04;96649.56;;;4.81;100.00
62634;BME280;48704;50.534;6.442;2024-01-25T02:49:30;96649.13;;;4.83;100.00
62634;BME280;48704;50.534;6.442;2024-01-25T02:51:55;96634.66;;;4.75;100.00
62634;BME280;48704;50.534;6.442;2024-01-25T02:54:20;96647.00;;;4.63;100.00
62634;BME280;48704;50.534;6.442;2024-01-25T02:56:45;96652.06;;;4.68;100.00
62634;BME280;48704;50.534;6.442;2024-01-25T02:59:11;96660.69;;;4.74;100.00
62634;BME280;48704;50.534;6.442;2024-01-25T03:01:43;96656.81;;;4.68;100.00
62634;BME280;48704;50.534;6.442;2024-01-25T03:04:10;96679.59;;;4.76;100.00
62634;BME280;48704;50.534;6.442;2024-01-25T03:06:35;96670.28;;;4.62;100.00
62634;BME280;48704;50.534;6.442;2024-01-25T03:09:00;96663.03;;;4.76;100.00
62634;BME280;48704;50.534;6.442;2024-01-25T03:11:26;96661.56;;;4.67;100.00
62634;BME280;48704;50.534;6.442;2024-01-25T03:13:51;96660.00;;;4.66;100.00
62634;BME280;48704;50.534;6.442;2024-01-25T03:16:16;96654.84;;;4.68;100.00
62634;BME280;48704;50.534;6.442;2024-01-25T03:18:41;96650.97;;;4.62;100.00
62634;BME280;48704;50.534;6.442;2024-01-25T03:21:07;96670.28;;;4.62;100.00
62634;BME280;48704;50.534;6.442;2024-01-25T03:23:32;96678.31;;;4.50;100.00
62634;BME280;48704;50.534;6.442;2024-01-25T03:25:58;96675.88;;;4.55;100.00
62634;BME280;48704;50.534;6.442;2024-01-25T03:28:23;96687.22;;;4.64;100.00
62634;BME280;48704;50.534;6.442;2024-01-25T03:30:48;96672.69;;;4.60;100.00
62634;BME280;48704;50.534;6.442;2024-01-25T03:33:13;96682.59;;;4.54;100.00
62634;BME280;48704;50.534;6.442;2024-01-25T03:35:39;96674.25;;;4.61;100.00
62634;BME280;48704;50.534;6.442;2024-01-25T03:38:04;96671.16;;;4.56;100.00
62634;BME280;48704;50.534;6.442;2024-01-25T03:40:29;96672.69;;;4.60;100.00
62634;BME280;48704;50.534;6.442;2024-01-25T03:42:55;96684.53;;;4.57;100.00
62634;BME280;48704;50.534;6.442;2024-01-25T03:45:20;96679.09;;;4.50;100.00
62634;BME280;48704;50.534;6.442;2024-01-25T03:47:45;96674.31;;;4.54;100.00
62634;BME280;48704;50.534;6.442;2024-01-25T03:50:10;96674.78;;;4.49;100.00
62634;BME280;48704;50.534;6.442;2024-01-25T03:52:36;96670.50;;;4.45;100.00
62634;BME280;48704;50.534;6.442;2024-01-25T03:55:01;96668.47;;;4.49;100.00
62634;BME280;48704;50.534;6.442;2024-01-25T03:57:26;96665.78;;;4.45;100.00
62634;BME280;48704;50.534;6.442;2024-01-25T03:59:52;96670.81;;;4.50;100.00
62634;BME280;48704;50.534;6.442;2024-01-25T04:02:17;96679.09;;;4.50;100.00
62634;BME280;48704;50.534;6.442;2024-01-25T04:04:42;96668.16;;;4.43;100.00
62634;BME280;48704;50.534;6.442;2024-01-25T04:07:07;96675.25;;;4.44;100.00
62634;BME280;48704;50.534;6.442;2024-01-25T04:09:33;96683.66;;;4.30;100.00
62634;BME280;48704;50.534;6.442;2024-01-25T04:11:58;96682.44;;;4.34;100.00
62634;BME280;48704;50.534;6.442;2024-01-25T04:14:23;96683.59;;;4.37;100.00
62634;BME280;48704;50.534;6.442;2024-01-25T04:16:49;96678.94;;;4.30;100.00
62634;BME280;48704;50.534;6.442;2024-01-25T04:19:14;96686.88;;;4.25;100.00
62634;BME280;48704;50.534;6.442;2024-01-25T04:21:39;96685.09;;;4.08;100.00
62634;BME280;48704;50.534;6.442;2024-01-25T04:24:05;96669.25;;;4.12;100.00
62634;BME280;48704;50.534;6.442;2024-01-25T04:26:30;96662.91;;;4.15;100.00
62634;BME280;48704;50.534;6.442;2024-01-25T04:28:56;96669.66;;;4.10;100.00
62634;BME280;48704;50.534;6.442;2024-01-25T04:31:21;96679.56;;;4.08;100.00
62634;BME280;48704;50.534;6.442;2024-01-25T04:33:46;96684.06;;;3.87;100.00
62634;BME280;48704;50.534;6.442;2024-01-25T04:36:12;96680.06;;;3.95;100.00
62634;BME280;48704;50.534;6.442;2024-01-25T04:38:37;96669.09;;;3.88;100.00
62634;BME280;48704;50.534;6.442;2024-01-25T04:41:02;96658.06;;;3.88;100.00
62634;BME280;48704;50.534;6.442;2024-01-25T04:43:28;96655.34;;;3.85;100.00
62634;BME280;48704;50.534;6.442;2024-01-25T04:45:53;96657.00;;;3.75;100.00
62634;BME280;48704;50.534;6.442;2024-01-25T04:48:18;96648.31;;;3.77;100.00
62634;BME280;48704;50.534;6.442;2024-01-25T04:50:44;96664.88;;;3.73;100.00
62634;BME280;48704;50.534;6.442;2024-01-25T04:53:09;96662.50;;;3.75;100.00
62634;BME280;48704;50.534;6.442;2024-01-25T04:55:34;96661.41;;;3.69;100.00
62634;BME280;48704;50.534;6.442;2024-01-25T04:57:59;96657.03;;;3.72;100.00
62634;BME280;48704;50.534;6.442;2024-01-25T05:00:25;96662.88;;;3.77;100.00
62634;BME280;48704;50.534;6.442;2024-01-25T05:02:50;96653.00;;;3.83;100.00
62634;BME280;48704;50.534;6.442;2024-01-25T05:05:15;96655.75;;;3.83;100.00
62634;BME280;48704;50.534;6.442;2024-01-25T05:07:41;96659.31;;;3.80;100.00
62634;BME280;48704;50.534;6.442;2024-01-25T05:10:07;96662.38;;;3.89;100.00
62634;BME280;48704;50.534;6.442;2024-01-25T05:12:33;96675.00;;;3.87;100.00
62634;BME280;48704;50.534;6.442;2024-01-25T05:14:58;96686.25;;;3.65;100.00
62634;BME280;48704;50.534;6.442;2024-01-25T05:17:23;96684.44;;;3.89;100.00
62634;BME280;48704;50.534;6.442;2024-01-25T05:19:48;96688.84;;;3.80;100.00
62634;BME280;48704;50.534;6.442;2024-01-25T05:22:14;96686.03;;;3.87;100.00
62634;BME280;48704;50.534;6.442;2024-01-25T05:24:39;96683.84;;;3.71;100.00
62634;BME280;48704;50.534;6.442;2024-01-25T05:27:04;96683.75;;;3.78;100.00
62634;BME280;48704;50.534;6.442;2024-01-25T05:29:30;96679.78;;;3.83;100.00
62634;BME280;48704;50.534;6.442;2024-01-25T05:31:55;96675.03;;;3.83;100.00
62634;BME280;48704;50.534;6.442;2024-01-25T05:34:21;96683.00;;;3.74;100.00
62634;BME280;48704;50.534;6.442;2024-01-25T05:36:46;96688.75;;;3.94;100.00
62634;BME280;48704;50.534;6.442;2024-01-25T05:39:12;96683.31;;;3.83;100.00
62634;BME280;48704;50.534;6.442;2024-01-25T05:41:38;96688.41;;;3.88;100.00
62634;BME280;48704;50.534;6.442;2024-01-25T05:44:04;96694.63;;;3.96;100.00
62634;BME280;48704;50.534;6.442;2024-01-25T05:46:29;96704.88;;;3.95;100.00
62634;BME280;48704;50.534;6.442;2024-01-25T05:48:54;96702.13;;;3.95;100.00
62634;BME280;48704;50.534;6.442;2024-01-25T05:51:20;96697.78;;;3.98;100.00
62634;BME280;48704;50.534;6.442;2024-01-25T05:53:45;96697.81;;;3.94;100.00
62634;BME280;48704;50.534;6.442;2024-01-25T05:56:10;96695.50;;;3.86;100.00
62634;BME280;48704;50.534;6.442;2024-01-25T05:58:35;96702.66;;;3.76;100.00
62634;BME280;48704;50.534;6.442;2024-01-25T06:01:01;96702.69;;;3.73;100.00
62634;BME280;48704;50.534;6.442;2024-01-25T06:03:27;96698.09;;;3.59;100.00
62634;BME280;48704;50.534;6.442;2024-01-25T06:05:53;96690.97;;;3.65;100.00
62634;BME280;48704;50.534;6.442;2024-01-25T06:08:18;96698.06;;;3.62;100.00
62634;BME280;48704;50.534;6.442;2024-01-25T06:10:43;96707.13;;;3.63;100.00
62634;BME280;48704;50.534;6.442;2024-01-25T06:13:09;96721.41;;;3.47;100.00
62634;BME280;48704;50.534;6.442;2024-01-25T06:15:34;96708.34;;;3.55;100.00
62634;BME280;48704;50.534;6.442;2024-01-25T06:17:59;96711.97;;;3.45;100.00
62634;BME280;48704;50.534;6.442;2024-01-25T06:20:24;96717.03;;;3.50;100.00
62634;BME280;48704;50.534;6.442;2024-01-25T06:22:50;96719.00;;;3.53;100.00
62634;BME280;48704;50.534;6.442;2024-01-25T06:25:15;96731.66;;;3.43;100.00
62634;BME280;48704;50.534;6.442;2024-01-25T06:27:40;96728.13;;;3.39;100.00
62634;BME280;48704;50.534;6.442;2024-01-25T06:30:06;96729.25;;;3.52;100.00
62634;BME280;48704;50.534;6.442;2024-01-25T06:32:31;96733.25;;;3.37;100.00
62634;BME280;48704;50.534;6.442;2024-01-25T06:34:57;96734.16;;;3.20;100.00
62634;BME280;48704;50.534;6.442;2024-01-25T06:37:22;96730.72;;;2.98;100.00
62634;BME280;48704;50.534;6.442;2024-01-25T06:39:47;96741.81;;;2.84;100.00
62634;BME280;48704;50.534;6.442;2024-01-25T06:42:13;96733.97;;;2.72;100.00
62634;BME280;48704;50.534;6.442;2024-01-25T06:44:39;96738.69;;;2.67;100.00
62634;BME280;48704;50.534;6.442;2024-01-25T06:47:04;96745.78;;;2.61;100.00
62634;BME280;48704;50.534;6.442;2024-01-25T06:49:29;96749.78;;;2.53;100.00
62634;BME280;48704;50.534;6.442;2024-01-25T06:51:55;96756.38;;;2.77;100.00
62634;BME280;48704;50.534;6.442;2024-01-25T06:54:20;96753.50;;;3.02;100.00
62634;BME280;48704;50.534;6.442;2024-01-25T06:56:45;96753.06;;;3.14;100.00
62634;BME280;48704;50.534;6.442;2024-01-25T06:59:11;96757.88;;;2.96;100.00
62634;BME280;48704;50.534;6.442;2024-01-25T07:01:36;96757.16;;;2.81;100.00
62634;BME280;48704;50.534;6.442;2024-01-25T07:04:01;96749.19;;;2.97;100.00
62634;BME280;48704;50.534;6.442;2024-01-25T07:06:28;96745.69;;;2.93;100.00
62634;BME280;48704;50.534;6.442;2024-01-25T07:08:53;96741.72;;;2.98;100.00
62634;BME280;48704;50.534;6.442;2024-01-25T07:11:19;96743.28;;;3.06;100.00
62634;BME280;48704;50.534;6.442;2024-01-25T07:13:44;96740.91;;;3.08;100.00
62634;BME280;48704;50.534;6.442;2024-01-25T07:16:09;96749.16;;;3.08;100.00
62634;BME280;48704;50.534;6.442;2024-01-25T07:18:35;96750.34;;;3.03;100.00
62634;BME280;48704;50.534;6.442;2024-01-25T07:21:00;96753.50;;;3.02;100.00
62634;BME280;48704;50.534;6.442;2024-01-25T07:23:25;96759.06;;;2.95;100.00
62634;BME280;48704;50.534;6.442;2024-01-25T07:25:52;96757.47;;;2.97;100.00
62634;BME280;48704;50.534;6.442;2024-01-25T07:28:19;96759.47;;;2.93;100.00
62634;BME280;48704;50.534;6.442;2024-01-25T07:30:49;96757.94;;;2.75;100.00
62634;BME280;48704;50.534;6.442;2024-01-25T07:33:15;96765.41;;;2.81;100.00
62634;BME280;48704;50.534;6.442;2024-01-25T07:35:41;96754.00;;;2.83;100.00
62634;BME280;48704;50.534;6.442;2024-01-25T07:38:11;96754.41;;;2.71;100.00
62634;BME280;48704;50.534;6.442;2024-01-25T07:40:36;96741.44;;;2.75;100.00
62634;BME280;48704;50.534;6.442;2024-01-25T07:43:01;96732.41;;;2.71;100.00
62634;BME280;48704;50.534;6.442;2024-01-25T07:45:27;96736.34;;;2.62;100.00
62634;BME280;48704;50.534;6.442;2024-01-25T07:47:52;96753.69;;;2.59;100.00
62634;BME280;48704;50.534;6.442;2024-01-25T07:50:17;96759.13;;;2.74;100.00
62634;BME280;48704;50.534;6.442;2024-01-25T07:52:44;96759.16;;;2.66;100.00
62634;BME280;48704;50.534;6.442;2024-01-25T07:55:09;96751.34;;;2.54;100.00
62634;BME280;48704;50.534;6.442;2024-01-25T07:57:34;96758.75;;;2.64;100.00
62634;BME280;48704;50.534;6.442;2024-01-25T08:00:00;96759.94;;;2.63;100.00
62634;BME280;48704;50.534;6.442;2024-01-25T08:02:25;96755.97;;;2.75;100.00
62634;BME280;48704;50.534;6.442;2024-01-25T08:04:50;96760.28;;;2.80;100.00
62634;BME280;48704;50.534;6.442;2024-01-25T08:07:16;96751.91;;;3.08;100.00
62634;BME280;48704;50.534;6.442;2024-01-25T08:09:41;96751.91;;;3.08;100.00
62634;BME280;48704;50.534;6.442;2024-01-25T08:12:08;96744.88;;;3.00;100.00
62634;BME280;48704;50.534;6.442;2024-01-25T08:14:33;96756.69;;;2.97;100.00
62634;BME280;48704;50.534;6.442;2024-01-25T08:16:58;96769.66;;;3.00;100.00
62634;BME280;48704;50.534;6.442;2024-01-25T08:19:23;96762.16;;;3.04;100.00
62634;BME280;48704;50.534;6.442;2024-01-25T08:21:49;96763.66;;;3.19;100.00
62634;BME280;48704;50.534;6.442;2024-01-25T08:24:14;96759.31;;;3.25;100.00
62634;BME280;48704;50.534;6.442;2024-01-25T08:26:40;96753.81;;;3.22;100.00
62634;BME280;48704;50.534;6.442;2024-01-25T08:29:05;96748.28;;;3.29;100.00
62634;BME280;48704;50.534;6.442;2024-01-25T08:31:31;96744.38;;;3.26;100.00
62634;BME280;48704;50.534;6.442;2024-01-25T08:33:56;96743.25;;;3.13;100.00
62634;BME280;48704;50.534;6.442;2024-01-25T08:36:21;96742.38;;;3.30;100.00
62634;BME280;48704;50.534;6.442;2024-01-25T08:38:48;96738.44;;;3.31;100.00
62634;BME280;48704;50.534;6.442;2024-01-25T08:41:13;96731.34;;;3.30;100.00
62634;BME280;48704;50.534;6.442;2024-01-25T08:43:40;96732.84;;;3.39;100.00
62634;BME280;48704;50.534;6.442;2024-01-25T08:46:05;96728.84;;;3.54;100.00
62634;BME280;48704;50.534;6.442;2024-01-25T08:48:31;96739.00;;;3.64;100.00
62634;BME280;48704;50.534;6.442;2024-01-25T08:50:56;96733.75;;;3.80;100.00
62634;BME280;48704;50.534;6.442;2024-01-25T08:53:21;96734.84;;;3.93;100.00
62634;BME280;48704;50.534;6.442;2024-01-25T08:55:55;96732.47;;;3.95;100.00
62634;BME280;48704;50.534;6.442;2024-01-25T08:58:21;96736.81;;;3.93;100.00
62634;BME280;48704;50.534;6.442;2024-01-25T09:00:47;96726.97;;;3.92;100.00
62634;BME280;48704;50.534;6.442;2024-01-25T09:03:13;96720.47;;;4.13;100.00
62634;BME280;48704;50.534;6.442;2024-01-25T09:05:39;96725.81;;;4.34;100.00
62634;BME280;48704;50.534;6.442;2024-01-25T09:08:10;96723.19;;;4.57;100.00
62634;BME280;48704;50.534;6.442;2024-01-25T09:10:36;96717.88;;;4.74;100.00
62634;BME280;48704;50.534;6.442;2024-01-25T09:13:01;96733.50;;;4.87;100.00
62634;BME280;48704;50.534;6.442;2024-01-25T09:15:27;96736.13;;;4.98;100.00
62634;BME280;48704;50.534;6.442;2024-01-25T09:17:52;96724.19;;;5.08;100.00
62634;BME280;48704;50.534;6.442;2024-01-25T09:20:17;96735.69;;;5.03;100.00
62634;BME280;48704;50.534;6.442;2024-01-25T09:22:43;96730.16;;;5.03;100.00
62634;BME280;48704;50.534;6.442;2024-01-25T09:25:09;96731.34;;;5.32;100.00
62634;BME280;48704;50.534;6.442;2024-01-25T09:27:34;96727.66;;;5.43;100.00
62634;BME280;48704;50.534;6.442;2024-01-25T09:29:59;96732.31;;;5.49;100.00
62634;BME280;48704;50.534;6.442;2024-01-25T09:32:25;96731.78;;;5.85;100.00
62634;BME280;48704;50.534;6.442;2024-01-25T09:34:50;96727.84;;;6.09;100.00
62634;BME280;48704;50.534;6.442;2024-01-25T09:37:15;96731.03;;;6.31;100.00
62634;BME280;48704;50.534;6.442;2024-01-25T09:39:42;96733.56;;;6.22;100.00
62634;BME280;48704;50.534;6.442;2024-01-25T09:42:08;96730.44;;;6.20;100.00
62634;BME280;48704;50.534;6.442;2024-01-25T09:44:33;96740.16;;;5.78;100.00
62634;BME280;48704;50.534;6.442;2024-01-25T09:47:03;96747.16;;;5.59;100.00
62634;BME280;48704;50.534;6.442;2024-01-25T09:49:30;96747.56;;;5.57;100.00
62634;BME280;48704;50.534;6.442;2024-01-25T09:51:56;96740.19;;;5.51;100.00
62634;BME280;48704;50.534;6.442;2024-01-25T09:54:22;96755.25;;;5.46;100.00
62634;BME280;48704;50.534;6.442;2024-01-25T09:56:51;96744.50;;;5.52;100.00
62634;BME280;48704;50.534;6.442;2024-01-25T09:59:16;96753.69;;;5.72;100.00
62634;BME280;48704;50.534;6.442;2024-01-25T10:01:42;96756.19;;;5.93;100.00
62634;BME280;48704;50.534;6.442;2024-01-25T10:04:09;96757.72;;;6.41;100.00
62634;BME280;48704;50.534;6.442;2024-01-25T10:06:34;96756.13;;;6.87;100.00
62634;BME280;48704;50.534;6.442;2024-01-25T10:08:59;96756.84;;;6.91;100.00
62634;BME280;48704;50.534;6.442;2024-01-25T10:11:24;96761.09;;;7.15;100.00
62634;BME280;48704;50.534;6.442;2024-01-25T10:13:50;96759.47;;;7.54;100.00
62634;BME280;48704;50.534;6.442;2024-01-25T10:16:17;96767.44;;;7.88;100.00
62634;BME280;48704;50.534;6.442;2024-01-25T10:18:45;96760.78;;;8.18;100.00
62634;BME280;48704;50.534;6.442;2024-01-25T10:21:12;96759.50;;;8.06;100.00
62634;BME280;48704;50.534;6.442;2024-01-25T10:23:38;96755.41;;;8.27;100.00
62634;BME280;48704;50.534;6.442;2024-01-25T10:26:03;96767.00;;;7.73;100.00
62634;BME280;48704;50.534;6.442;2024-01-25T10:28:29;96760.75;;;7.85;100.00
62634;BME280;48704;50.534;6.442;2024-01-25T10:30:57;96762.94;;;7.42;100.00
62634;BME280;48704;50.534;6.442;2024-01-25T10:33:25;96756.84;;;7.66;100.00
62634;BME280;48704;50.534;6.442;2024-01-25T10:35:54;96752.22;;;8.12;100.00
62634;BME280;48704;50.534;6.442;2024-01-25T10:38:21;96764.59;;;8.24;100.00
62634;BME280;48704;50.534;6.442;2024-01-25T10:40:47;96763.75;;;8.11;100.00
62634;BME280;48704;50.534;6.442;2024-01-25T10:43:12;96770.97;;;7.72;100.00
62634;BME280;48704;50.534;6.442;2024-01-25T10:45:37;96772.84;;;7.95;100.00
62634;BME280;48704;50.534;6.442;2024-01-25T10:48:03;96769.94;;;7.82;100.00
62634;BME280;48704;50.534;6.442;2024-01-25T10:50:29;96757.28;;;7.81;100.00
62634;BME280;48704;50.534;6.442;2024-01-25T10:52:55;96753.47;;;7.91;100.00
62634;BME280;48704;50.534;6.442;2024-01-25T10:55:21;96747.34;;;8.16;100.00
62634;BME280;48704;50.534;6.442;2024-01-25T10:57:46;96745.50;;;8.26;100.00
62634;BME280;48704;50.534;6.442;2024-01-25T11:00:16;96741.50;;;8.59;100.00
62634;BME280;48704;50.534;6.442;2024-01-25T11:02:43;96735.34;;;8.68;100.00
62634;BME280;48704;50.534;6.442;2024-01-25T11:05:13;96722.59;;;9.12;100.00
62634;BME280;48704;50.534;6.442;2024-01-25T11:10:27;96717.34;;;9.68;100.00
62634;BME280;48704;50.534;6.442;2024-01-25T11:15:22;96713.41;;;9.28;100.00
62634;BME280;48704;50.534;6.442;2024-01-25T11:17:55;96717.53;;;8.94;100.00
62634;BME280;48704;50.534;6.442;2024-01-25T11:20:22;96722.59;;;8.54;100.00
62634;BME280;48704;50.534;6.442;2024-01-25T11:22:47;96713.56;;;8.18;100.00
62634;BME280;48704;50.534;6.442;2024-01-25T11:25:18;96707.25;;;8.17;100.00
62634;BME280;48704;50.534;6.442;2024-01-25T11:27:45;96699.69;;;8.18;100.00
62634;BME280;48704;50.534;6.442;2024-01-25T11:30:13;96701.22;;;8.67;100.00
62634;BME280;48704;50.534;6.442;2024-01-25T11:32:38;96691.00;;;8.32;100.00
62634;BME280;48704;50.534;6.442;2024-01-25T11:35:04;96687.97;;;8.26;100.00
62634;BME280;48704;50.534;6.442;2024-01-25T11:37:30;96689.56;;;7.95;100.00
62634;BME280;48704;50.534;6.442;2024-01-25T11:39:55;96684.06;;;8.24;100.00
62634;BME280;48704;50.534;6.442;2024-01-25T11:42:20;96684.00;;;8.27;100.00
62634;BME280;48704;50.534;6.442;2024-01-25T11:44:47;96671.94;;;8.50;100.00
62634;BME280;48704;50.534;6.442;2024-01-25T11:47:12;96659.69;;;8.77;100.00
62634;BME280;48704;50.534;6.442;2024-01-25T11:49:39;96658.81;;;8.51;100.00
62634;BME280;48704;50.534;6.442;2024-01-25T11:52:04;96662.72;;;8.53;100.00
62634;BME280;48704;50.534;6.442;2024-01-25T11:54:30;96655.81;;;8.87;100.00
62634;BME280;48704;50.534;6.442;2024-01-25T11:56:56;96665.28;;;9.02;100.00
62634;BME280;48704;50.534;6.442;2024-01-25T11:59:21;96667.63;;;8.91;100.00
62634;BME280;48704;50.534;6.442;2024-01-25T12:01:47;96664.66;;;8.69;100.00
62634;BME280;48704;50.534;6.442;2024-01-25T12:04:12;96672.97;;;8.69;100.00
62634;BME280;48704;50.534;6.442;2024-01-25T12:06:37;96655.97;;;8.38;100.00
62634;BME280;48704;50.534;6.442;2024-01-25T12:09:09;96660.22;;;8.26;100.00
62634;BME280;48704;50.534;6.442;2024-01-25T12:11:35;96667.41;;;8.24;100.00
62634;BME280;48704;50.534;6.442;2024-01-25T12:14:01;96645.00;;;8.02;100.00
62634;BME280;48704;50.534;6.442;2024-01-25T12:16:26;96638.97;;;8.20;100.00
62634;BME280;48704;50.534;6.442;2024-01-25T12:18:51;96641.09;;;7.99;100.00
62634;BME280;48704;50.534;6.442;2024-01-25T12:21:17;96642.88;;;8.22;100.00
62634;BME280;48704;50.534;6.442;2024-01-25T12:23:43;96650.44;;;8.05;100.00
62634;BME280;48704;50.534;6.442;2024-01-25T12:26:10;96645.81;;;8.31;100.00
62634;BME280;48704;50.534;6.442;2024-01-25T12:28:36;96646.38;;;8.10;100.00
62634;BME280;48704;50.534;6.442;2024-01-25T12:31:03;96652.63;;;7.82;100.00
62634;BME280;48704;50.534;6.442;2024-01-25T12:33:29;96649.25;;;7.58;100.00
62634;BME280;48704;50.534;6.442;2024-01-25T12:35:54;96656.88;;;7.54;100.00
62634;BME280;48704;50.534;6.442;2024-01-25T12:38:21;96655.50;;;7.62;100.00
62634;BME280;48704;50.534;6.442;2024-01-25T12:40:47;96649.41;;;7.83;100.00
62634;BME280;48704;50.534;6.442;2024-01-25T12:43:12;96634.69;;;7.70;100.00
62634;BME280;48704;50.534;6.442;2024-01-25T12:45:38;96644.41;;;7.78;100.00
62634;BME280;48704;50.534;6.442;2024-01-25T12:48:04;96624.63;;;7.60;100.00
62634;BME280;48704;50.534;6.442;2024-01-25T12:50:31;96616.66;;;7.62;100.00
62634;BME280;48704;50.534;6.442;2024-01-25T12:52:57;96622.53;;;7.48;100.00
62634;BME280;48704;50.534;6.442;2024-01-25T12:55:22;96619.44;;;7.78;100.00
62634;BME280;48704;50.534;6.442;2024-01-25T12:57:47;96617.25;;;7.69;100.00